Coolidge, Georgia
Current Conditions -  °F | °C
As of 3:15 AM on Monday 22 Dec 2014 (Local Time) from KMGR Reporting Station
Haze Haze  
Wind Chill: 52°   Ceiling: 100
Heat Index: 52°   Visibility: 1.2mi
Dew Point: 52°   Wind: 3mph
Humidity: 100%   Direction: 60°ENE
Pressure: 30"   Gusts: NA
Location:  31.01°N, 83.87°W
Report Text: KMGR 220815Z AUTO 06003KT 1 1/4SM BR OVC001 11/11 A3000 RMK AO2
Loading
Personal Weather Stations






























Interactive Weather Map New forecast layout! Learn more

10-Day Weather Forecast

Advertisements
Track Severe Weather on mobile